sensor_id;sensor_type;location;lat;lon;timestamp;pressure;altitude;pressure_sealevel;temperature;humidity
68399;BME280;56258;52.196;13.868;2022-10-31T00:01:25;101467.78;;;21.82;53.04
68399;BME280;56258;52.196;13.868;2022-10-31T00:03:52;101470.47;;;21.90;52.87
68399;BME280;56258;52.196;13.868;2022-10-31T00:06:19;101468.09;;;21.87;52.42
68399;BME280;56258;52.196;13.868;2022-10-31T00:08:47;101476.41;;;21.85;52.52
68399;BME280;56258;52.196;13.868;2022-10-31T00:11:14;101474.53;;;21.86;53.00
68399;BME280;56258;52.196;13.868;2022-10-31T00:13:40;101476.94;;;21.81;52.53
68399;BME280;56258;52.196;13.868;2022-10-31T00:16:16;101471.34;;;21.82;52.83
68399;BME280;56258;52.196;13.868;2022-10-31T00:18:43;101477.31;;;21.78;53.20
68399;BME280;56258;52.196;13.868;2022-10-31T00:21:10;101466.47;;;21.78;53.22
68399;BME280;56258;52.196;13.868;2022-10-31T00:23:36;101474.75;;;21.76;53.23
68399;BME280;56258;52.196;13.868;2022-10-31T00:26:04;101475.06;;;21.81;52.42
68399;BME280;56258;52.196;13.868;2022-10-31T00:28:31;101474.59;;;21.78;53.18
68399;BME280;56258;52.196;13.868;2022-10-31T00:31:09;101484.72;;;21.76;52.92
68399;BME280;56258;52.196;13.868;2022-10-31T00:33:37;101468.50;;;21.76;53.09
68399;BME280;56258;52.196;13.868;2022-10-31T00:36:05;101467.50;;;21.77;53.16
68399;BME280;56258;52.196;13.868;2022-10-31T00:38:32;101468.66;;;21.74;52.93
68399;BME280;56258;52.196;13.868;2022-10-31T00:40:59;101472.94;;;21.69;52.79
68399;BME280;56258;52.196;13.868;2022-10-31T00:43:25;101478.84;;;21.72;52.70
68399;BME280;56258;52.196;13.868;2022-10-31T00:45:52;101483.59;;;21.70;53.27
68399;BME280;56258;52.196;13.868;2022-10-31T00:48:19;101487.13;;;21.71;52.73
68399;BME280;56258;52.196;13.868;2022-10-31T00:50:45;101488.34;;;21.68;52.50
68399;BME280;56258;52.196;13.868;2022-10-31T00:53:12;101489.41;;;21.59;53.36
68399;BME280;56258;52.196;13.868;2022-10-31T00:55:39;101497.22;;;21.46;53.34
68399;BME280;56258;52.196;13.868;2022-10-31T00:58:05;101504.50;;;21.45;54.32
68399;BME280;56258;52.196;13.868;2022-10-31T01:00:32;101499.41;;;21.50;54.17
68399;BME280;56258;52.196;13.868;2022-10-31T01:02:59;101503.41;;;21.63;53.21
68399;BME280;56258;52.196;13.868;2022-10-31T01:05:26;101506.09;;;21.71;53.47
68399;BME280;56258;52.196;13.868;2022-10-31T01:07:53;101506.94;;;21.63;53.54
68399;BME280;56258;52.196;13.868;2022-10-31T01:10:19;101504.31;;;21.55;53.21
68399;BME280;56258;52.196;13.868;2022-10-31T01:12:48;101496.66;;;21.59;53.61
68399;BME280;56258;52.196;13.868;2022-10-31T01:15:19;101501.03;;;21.68;53.54
68399;BME280;56258;52.196;13.868;2022-10-31T01:17:47;101503.56;;;21.69;52.66
68399;BME280;56258;52.196;13.868;2022-10-31T01:20:15;101497.97;;;21.71;53.36
68399;BME280;56258;52.196;13.868;2022-10-31T01:22:43;101499.00;;;21.70;53.30
68399;BME280;56258;52.196;13.868;2022-10-31T01:25:10;101501.34;;;21.73;52.50
68399;BME280;56258;52.196;13.868;2022-10-31T01:27:36;101499.00;;;21.70;52.61
68399;BME280;56258;52.196;13.868;2022-10-31T01:30:04;101503.91;;;21.66;53.38
68399;BME280;56258;52.196;13.868;2022-10-31T01:32:31;101500.03;;;21.61;52.98
68399;BME280;56258;52.196;13.868;2022-10-31T01:34:58;101501.03;;;21.68;52.79
68399;BME280;56258;52.196;13.868;2022-10-31T01:37:25;101498.84;;;21.63;53.29
68399;BME280;56258;52.196;13.868;2022-10-31T01:39:51;101497.88;;;21.56;53.82
68399;BME280;56258;52.196;13.868;2022-10-31T01:42:20;101500.97;;;21.45;53.36
68399;BME280;56258;52.196;13.868;2022-10-31T01:44:54;101504.63;;;21.52;53.21
68399;BME280;56258;52.196;13.868;2022-10-31T01:47:30;101501.06;;;21.60;53.28
68399;BME280;56258;52.196;13.868;2022-10-31T01:50:01;101500.56;;;21.56;52.89
68399;BME280;56258;52.196;13.868;2022-10-31T01:52:37;101494.66;;;21.52;53.04
68399;BME280;56258;52.196;13.868;2022-10-31T01:55:09;101501.09;;;21.51;53.07
68399;BME280;56258;52.196;13.868;2022-10-31T01:57:40;101489.59;;;21.49;53.62
68399;BME280;56258;52.196;13.868;2022-10-31T02:00:10;101493.69;;;21.45;53.85
68399;BME280;56258;52.196;13.868;2022-10-31T02:02:37;101496.56;;;21.44;53.60
68399;BME280;56258;52.196;13.868;2022-10-31T02:05:06;101498.19;;;21.53;53.83
68399;BME280;56258;52.196;13.868;2022-10-31T02:08:00;101504.59;;;21.60;52.86
68399;BME280;56258;52.196;13.868;2022-10-31T02:10:24;101507.00;;;21.55;53.47
68399;BME280;56258;52.196;13.868;2022-10-31T02:12:53;101507.00;;;21.55;53.21
68399;BME280;56258;52.196;13.868;2022-10-31T02:15:21;101506.16;;;21.54;52.96
68399;BME280;56258;52.196;13.868;2022-10-31T02:17:47;101507.00;;;21.55;53.35
68399;BME280;56258;52.196;13.868;2022-10-31T02:20:19;101511.53;;;21.63;52.59
68399;BME280;56258;52.196;13.868;2022-10-31T02:25:51;101517.50;;;21.50;52.85
68399;BME280;56258;52.196;13.868;2022-10-31T02:31:35;101518.69;;;21.55;53.33
68399;BME280;56258;52.196;13.868;2022-10-31T02:34:40;101527.47;;;21.58;53.07
68399;BME280;56258;52.196;13.868;2022-10-31T02:40:12;101522.72;;;21.51;53.04
68399;BME280;56258;52.196;13.868;2022-10-31T02:43:06;101519.72;;;21.46;53.36
68399;BME280;56258;52.196;13.868;2022-10-31T02:48:31;101525.16;;;21.38;53.55
68399;BME280;56258;52.196;13.868;2022-10-31T02:51:03;101524.31;;;21.38;52.93
68399;BME280;56258;52.196;13.868;2022-10-31T02:53:34;101526.53;;;21.34;53.45
68399;BME280;56258;52.196;13.868;2022-10-31T02:58:34;101532.44;;;21.30;53.29
68399;BME280;56258;52.196;13.868;2022-10-31T03:01:10;101529.03;;;21.36;53.50
68399;BME280;56258;52.196;13.868;2022-10-31T03:04:04;101534.09;;;21.39;53.31
68399;BME280;56258;52.196;13.868;2022-10-31T03:12:10;101531.25;;;21.24;53.35
68399;BME280;56258;52.196;13.868;2022-10-31T03:14:53;101529.22;;;21.18;53.18
68399;BME280;56258;52.196;13.868;2022-10-31T03:17:28;101538.88;;;21.20;53.13
68399;BME280;56258;52.196;13.868;2022-10-31T03:19:58;101542.41;;;21.21;53.09
68399;BME280;56258;52.196;13.868;2022-10-31T03:22:29;101547.16;;;21.27;53.48
68399;BME280;56258;52.196;13.868;2022-10-31T03:24:58;101542.41;;;21.21;53.09
68399;BME280;56258;52.196;13.868;2022-10-31T03:27:27;101550.00;;;21.17;53.50
68399;BME280;56258;52.196;13.868;2022-10-31T03:29:57;101545.31;;;21.11;53.80
68399;BME280;56258;52.196;13.868;2022-10-31T03:32:27;101541.94;;;20.77;54.33
68399;BME280;56258;52.196;13.868;2022-10-31T03:34:57;101544.81;;;20.51;55.28
68399;BME280;56258;52.196;13.868;2022-10-31T03:37:27;101549.22;;;20.68;55.20
68399;BME280;56258;52.196;13.868;2022-10-31T03:39:58;101562.03;;;20.90;54.30
68399;BME280;56258;52.196;13.868;2022-10-31T03:42:29;101561.34;;;21.05;53.94
68399;BME280;56258;52.196;13.868;2022-10-31T03:45:00;101556.78;;;21.13;53.44
68399;BME280;56258;52.196;13.868;2022-10-31T03:47:28;101556.94;;;21.20;53.44
68399;BME280;56258;52.196;13.868;2022-10-31T03:49:55;101569.31;;;21.31;52.60
68399;BME280;56258;52.196;13.868;2022-10-31T03:55:28;101576.72;;;21.12;53.60
68399;BME280;56258;52.196;13.868;2022-10-31T03:58:08;101581.13;;;21.13;53.63
68399;BME280;56258;52.196;13.868;2022-10-31T04:00:40;101580.28;;;21.05;53.04
68399;BME280;56258;52.196;13.868;2022-10-31T04:03:12;101575.88;;;21.04;53.15
68399;BME280;56258;52.196;13.868;2022-10-31T04:05:43;101581.97;;;20.89;53.29
68399;BME280;56258;52.196;13.868;2022-10-31T04:08:18;101582.13;;;20.80;54.04
68399;BME280;56258;52.196;13.868;2022-10-31T04:10:48;101581.28;;;20.79;54.11
68399;BME280;56258;52.196;13.868;2022-10-31T04:13:20;101580.81;;;20.84;54.03
68399;BME280;56258;52.196;13.868;2022-10-31T04:15:49;101587.19;;;20.83;53.54
68399;BME280;56258;52.196;13.868;2022-10-31T04:18:18;101580.63;;;20.85;53.57
68399;BME280;56258;52.196;13.868;2022-10-31T04:20:46;101582.50;;;20.85;53.97
68399;BME280;56258;52.196;13.868;2022-10-31T04:23:24;101584.66;;;20.81;54.42
68399;BME280;56258;52.196;13.868;2022-10-31T04:25:51;101581.31;;;20.87;53.59
68399;BME280;56258;52.196;13.868;2022-10-31T04:28:18;101590.59;;;20.93;53.63
68399;BME280;56258;52.196;13.868;2022-10-31T04:30:50;101592.81;;;20.97;53.56
68399;BME280;56258;52.196;13.868;2022-10-31T04:33:17;101587.41;;;20.97;53.50
68399;BME280;56258;52.196;13.868;2022-10-31T04:35:44;101585.69;;;20.88;53.66
68399;BME280;56258;52.196;13.868;2022-10-31T04:38:11;101603.09;;;20.61;54.50
68399;BME280;56258;52.196;13.868;2022-10-31T04:40:37;101600.69;;;20.42;55.00
68399;BME280;56258;52.196;13.868;2022-10-31T04:43:04;101600.69;;;20.42;55.15
68399;BME280;56258;52.196;13.868;2022-10-31T04:45:30;101603.22;;;20.52;54.64
68399;BME280;56258;52.196;13.868;2022-10-31T04:47:57;101601.53;;;20.59;54.63
68399;BME280;56258;52.196;13.868;2022-10-31T04:50:24;101600.19;;;20.71;54.54
68399;BME280;56258;52.196;13.868;2022-10-31T04:52:51;101605.97;;;20.76;54.33
68399;BME280;56258;52.196;13.868;2022-10-31T04:55:17;101590.78;;;20.75;54.23
68399;BME280;56258;52.196;13.868;2022-10-31T04:57:46;101605.97;;;20.76;53.95
68399;BME280;56258;52.196;13.868;2022-10-31T05:00:14;101598.69;;;20.77;53.77
68399;BME280;56258;52.196;13.868;2022-10-31T05:02:45;101597.69;;;20.78;54.04
68399;BME280;56258;52.196;13.868;2022-10-31T05:05:13;101599.72;;;20.84;53.76
68399;BME280;56258;52.196;13.868;2022-10-31T05:07:42;101596.66;;;20.79;53.76
68399;BME280;56258;52.196;13.868;2022-10-31T05:10:10;101607.66;;;20.77;53.89
68399;BME280;56258;52.196;13.868;2022-10-31T05:12:37;101606.31;;;20.73;54.54
68399;BME280;56258;52.196;13.868;2022-10-31T05:15:05;101605.94;;;20.52;54.55
68399;BME280;56258;52.196;13.868;2022-10-31T05:17:31;101607.88;;;20.33;55.17
68399;BME280;56258;52.196;13.868;2022-10-31T05:19:58;101599.91;;;20.24;55.49
68399;BME280;56258;52.196;13.868;2022-10-31T05:22:25;101604.66;;;20.30;55.08
68399;BME280;56258;52.196;13.868;2022-10-31T05:24:51;101611.81;;;20.47;54.57
68399;BME280;56258;52.196;13.868;2022-10-31T05:27:18;101600.03;;;20.64;54.50
68399;BME280;56258;52.196;13.868;2022-10-31T05:29:44;101605.78;;;20.69;53.67
68399;BME280;56258;52.196;13.868;2022-10-31T05:32:11;101607.13;;;20.65;53.89
68399;BME280;56258;52.196;13.868;2022-10-31T05:34:38;101602.41;;;20.76;54.19
68399;BME280;56258;52.196;13.868;2022-10-31T05:37:04;101604.25;;;20.83;53.03
68399;BME280;56258;52.196;13.868;2022-10-31T05:39:31;101617.44;;;20.78;53.43
68399;BME280;56258;52.196;13.868;2022-10-31T05:41:57;101616.78;;;20.76;53.64
68399;BME280;56258;52.196;13.868;2022-10-31T05:44:24;101608.81;;;20.83;53.67
68399;BME280;56258;52.196;13.868;2022-10-31T05:46:50;101617.28;;;20.80;53.94
68399;BME280;56258;52.196;13.868;2022-10-31T05:49:17;101617.44;;;20.78;53.06
68399;BME280;56258;52.196;13.868;2022-10-31T05:51:44;101624.53;;;20.79;53.66
68399;BME280;56258;52.196;13.868;2022-10-31T05:54:10;101621.34;;;20.76;53.51
68399;BME280;56258;52.196;13.868;2022-10-31T05:56:41;101625.00;;;20.42;54.68
68399;BME280;56258;52.196;13.868;2022-10-31T05:59:07;101628.59;;;20.17;55.45
68399;BME280;56258;52.196;13.868;2022-10-31T06:01:34;101628.72;;;20.07;55.19
68399;BME280;56258;52.196;13.868;2022-10-31T06:04:01;101630.06;;;20.03;55.64
68399;BME280;56258;52.196;13.868;2022-10-31T06:06:27;101642.38;;;20.05;55.57
68399;BME280;56258;52.196;13.868;2022-10-31T06:08:54;101637.19;;;20.20;55.25
68399;BME280;56258;52.196;13.868;2022-10-31T06:11:20;101637.88;;;20.22;54.87
68399;BME280;56258;52.196;13.868;2022-10-31T06:13:47;101634.88;;;20.33;55.08
68399;BME280;56258;52.196;13.868;2022-10-31T06:16:13;101634.03;;;20.33;55.13
68399;BME280;56258;52.196;13.868;2022-10-31T06:18:40;101643.31;;;20.30;54.89
68399;BME280;56258;52.196;13.868;2022-10-31T06:21:07;101643.38;;;20.47;54.73
68399;BME280;56258;52.196;13.868;2022-10-31T06:23:33;101648.41;;;20.42;54.45
68399;BME280;56258;52.196;13.868;2022-10-31T06:26:00;101650.75;;;20.28;55.20
68399;BME280;56258;52.196;13.868;2022-10-31T06:28:26;101644.75;;;20.43;54.92
68399;BME280;56258;52.196;13.868;2022-10-31T06:30:53;101648.75;;;20.38;55.94
68399;BME280;56258;52.196;13.868;2022-10-31T06:33:19;101652.88;;;20.51;56.05
68399;BME280;56258;52.196;13.868;2022-10-31T06:35:47;101662.84;;;20.66;55.97
68399;BME280;56258;52.196;13.868;2022-10-31T06:38:14;101660.34;;;20.73;56.90
68399;BME280;56258;52.196;13.868;2022-10-31T06:40:40;101665.63;;;20.99;55.78
68399;BME280;56258;52.196;13.868;2022-10-31T06:43:07;101661.72;;;21.18;54.59
68399;BME280;56258;52.196;13.868;2022-10-31T06:45:34;101660.03;;;21.17;54.76
68399;BME280;56258;52.196;13.868;2022-10-31T06:48:00;101660.38;;;21.14;54.91
68399;BME280;56258;52.196;13.868;2022-10-31T06:50:43;101662.03;;;21.07;54.47
68399;BME280;56258;52.196;13.868;2022-10-31T06:53:09;101664.28;;;21.19;54.32
68399;BME280;56258;52.196;13.868;2022-10-31T06:55:37;101666.44;;;21.16;54.73
68399;BME280;56258;52.196;13.868;2022-10-31T06:58:03;101668.31;;;21.15;54.21
68399;BME280;56258;52.196;13.868;2022-10-31T07:00:31;101668.97;;;21.17;54.32
68399;BME280;56258;52.196;13.868;2022-10-31T07:03:00;101675.94;;;21.20;53.86
68399;BME280;56258;52.196;13.868;2022-10-31T07:05:28;101680.34;;;21.21;53.59
68399;BME280;56258;52.196;13.868;2022-10-31T07:08:00;101683.38;;;21.26;53.34
68399;BME280;56258;52.196;13.868;2022-10-31T07:10:29;101691.50;;;21.26;53.65
68399;BME280;56258;52.196;13.868;2022-10-31T07:13:05;101688.44;;;21.29;53.11
68399;BME280;56258;52.196;13.868;2022-10-31T07:15:37;101684.59;;;21.32;53.11
68399;BME280;56258;52.196;13.868;2022-10-31T07:18:07;101695.72;;;21.37;53.58
68399;BME280;56258;52.196;13.868;2022-10-31T07:20:34;101701.97;;;21.37;52.82
68399;BME280;56258;52.196;13.868;2022-10-31T07:23:01;101704.03;;;21.43;52.73
68399;BME280;56258;52.196;13.868;2022-10-31T07:25:28;101699.97;;;21.47;52.28
68399;BME280;56258;52.196;13.868;2022-10-31T07:27:55;101702.66;;;21.55;52.62
68399;BME280;56258;52.196;13.868;2022-10-31T07:30:21;101706.88;;;21.58;52.54
68399;BME280;56258;52.196;13.868;2022-10-31T07:32:50;101710.25;;;21.60;52.05
68399;BME280;56258;52.196;13.868;2022-10-31T07:35:22;101712.28;;;21.58;52.31
68399;BME280;56258;52.196;13.868;2022-10-31T07:37:49;101707.22;;;21.55;52.11
68399;BME280;56258;52.196;13.868;2022-10-31T07:40:17;101712.78;;;21.62;51.63
68399;BME280;56258;52.196;13.868;2022-10-31T07:42:45;101714.16;;;21.58;52.06
68399;BME280;56258;52.196;13.868;2022-10-31T07:45:15;101716.03;;;21.65;51.95
68399;BME280;56258;52.196;13.868;2022-10-31T07:47:43;101707.72;;;21.67;50.92
68399;BME280;56258;52.196;13.868;2022-10-31T07:50:15;101714.13;;;21.82;51.35
68399;BME280;56258;52.196;13.868;2022-10-31T07:52:42;101709.34;;;22.08;50.54
68399;BME280;56258;52.196;13.868;2022-10-31T07:55:09;101707.94;;;22.21;50.25
68399;BME280;56258;52.196;13.868;2022-10-31T07:57:36;101717.03;;;22.36;49.96
68399;BME280;56258;52.196;13.868;2022-10-31T08:00:04;101726.69;;;22.38;49.52
68399;BME280;56258;52.196;13.868;2022-10-31T08:02:31;101723.38;;;22.59;49.14
68399;BME280;56258;52.196;13.868;2022-10-31T08:04:58;101721.53;;;22.83;48.22
68399;BME280;56258;52.196;13.868;2022-10-31T08:07:27;101722.50;;;22.98;47.94
68399;BME280;56258;52.196;13.868;2022-10-31T08:09:55;101719.84;;;23.13;47.71
68399;BME280;56258;52.196;13.868;2022-10-31T08:12:22;101718.88;;;23.28;46.87
68399;BME280;56258;52.196;13.868;2022-10-31T08:14:49;101721.09;;;23.25;46.96
68399;BME280;56258;52.196;13.868;2022-10-31T08:17:16;101720.13;;;23.41;46.32
68399;BME280;56258;52.196;13.868;2022-10-31T08:19:43;101721.41;;;23.30;46.77
68399;BME280;56258;52.196;13.868;2022-10-31T08:22:09;101719.47;;;22.93;47.47
68399;BME280;56258;52.196;13.868;2022-10-31T08:24:36;101718.56;;;22.69;48.31
68399;BME280;56258;52.196;13.868;2022-10-31T08:27:07;101717.63;;;22.54;48.65
68399;BME280;56258;52.196;13.868;2022-10-31T08:29:34;101726.22;;;22.27;49.17
68399;BME280;56258;52.196;13.868;2022-10-31T08:32:01;101724.53;;;22.18;49.33
68399;BME280;56258;52.196;13.868;2022-10-31T08:34:27;101720.63;;;22.20;49.56
68399;BME280;56258;52.196;13.868;2022-10-31T08:36:54;101727.56;;;22.23;49.57
68399;BME280;56258;52.196;13.868;2022-10-31T08:39:20;101728.63;;;22.13;49.54
68399;BME280;56258;52.196;13.868;2022-10-31T08:41:47;101728.63;;;22.13;49.70
68399;BME280;56258;52.196;13.868;2022-10-31T08:44:14;101718.81;;;22.12;49.48
68399;BME280;56258;52.196;13.868;2022-10-31T08:46:42;101723.53;;;22.10;49.60
68399;BME280;56258;52.196;13.868;2022-10-31T08:49:08;101725.41;;;22.02;49.72
68399;BME280;56258;52.196;13.868;2022-10-31T08:51:35;101721.19;;;22.07;50.21
68399;BME280;56258;52.196;13.868;2022-10-31T08:54:01;101732.03;;;22.07;49.47
68399;BME280;56258;52.196;13.868;2022-10-31T08:56:28;101731.66;;;22.19;49.95
68399;BME280;56258;52.196;13.868;2022-10-31T08:58:54;101727.91;;;22.20;49.55
68399;BME280;56258;52.196;13.868;2022-10-31T09:01:21;101724.06;;;22.06;49.88
68399;BME280;56258;52.196;13.868;2022-10-31T09:03:48;101730.69;;;22.11;49.50
68399;BME280;56258;52.196;13.868;2022-10-31T09:06:14;101736.09;;;22.11;49.71
68399;BME280;56258;52.196;13.868;2022-10-31T09:08:41;101733.38;;;22.11;49.74
68399;BME280;56258;52.196;13.868;2022-10-31T09:11:08;101741.66;;;22.10;49.80
68399;BME280;56258;52.196;13.868;2022-10-31T09:13:34;101730.50;;;22.13;50.04
68399;BME280;56258;52.196;13.868;2022-10-31T09:16:06;101735.06;;;22.12;50.02
68399;BME280;56258;52.196;13.868;2022-10-31T09:18:33;101736.41;;;22.17;49.87
68399;BME280;56258;52.196;13.868;2022-10-31T09:21:00;101736.09;;;22.11;49.25
68399;BME280;56258;52.196;13.868;2022-10-31T09:23:27;101739.59;;;22.20;49.56
68399;BME280;56258;52.196;13.868;2022-10-31T09:25:54;101746.59;;;22.46;48.80
68399;BME280;56258;52.196;13.868;2022-10-31T09:28:22;101747.88;;;22.66;48.33
68399;BME280;56258;52.196;13.868;2022-10-31T09:30:52;101740.03;;;22.40;48.79
68399;BME280;56258;52.196;13.868;2022-10-31T09:33:19;101751.63;;;22.18;49.40
68399;BME280;56258;52.196;13.868;2022-10-31T09:35:45;101747.78;;;22.51;48.76
68399;BME280;56258;52.196;13.868;2022-10-31T09:38:15;101751.13;;;22.61;48.38
68399;BME280;56258;52.196;13.868;2022-10-31T09:40:54;101742.25;;;22.76;47.54
68399;BME280;56258;52.196;13.868;2022-10-31T09:43:39;101748.16;;;22.87;47.81
68399;BME280;56258;52.196;13.868;2022-10-31T09:46:23;101746.72;;;23.22;47.32
68399;BME280;56258;52.196;13.868;2022-10-31T09:51:43;101745.31;;;23.72;45.71
68399;BME280;56258;52.196;13.868;2022-10-31T09:54:34;101741.91;;;24.23;44.47
68399;BME280;56258;52.196;13.868;2022-10-31T09:57:03;101743.94;;;23.53;46.04
68399;BME280;56258;52.196;13.868;2022-10-31T09:59:38;101741.53;;;23.58;45.89
68399;BME280;56258;52.196;13.868;2022-10-31T10:02:30;101743.16;;;23.22;46.50
68399;BME280;56258;52.196;13.868;2022-10-31T10:05:01;101744.19;;;22.98;47.65
68399;BME280;56258;52.196;13.868;2022-10-31T10:07:34;101749.00;;;22.80;47.81
68399;BME280;56258;52.196;13.868;2022-10-31T10:10:13;101747.31;;;22.87;47.79
68399;BME280;56258;52.196;13.868;2022-10-31T10:13:03;101741.25;;;22.68;48.25
68399;BME280;56258;52.196;13.868;2022-10-31T10:18:26;101746.78;;;23.14;47.40
68399;BME280;56258;52.196;13.868;2022-10-31T10:24:38;101751.03;;;24.44;43.79
68399;BME280;56258;52.196;13.868;2022-10-31T10:30:53;101741.66;;;22.57;48.50
68399;BME280;56258;52.196;13.868;2022-10-31T10:33:33;101743.13;;;22.37;48.84
68399;BME280;56258;52.196;13.868;2022-10-31T10:36:13;101743.41;;;22.42;48.88
68399;BME280;56258;52.196;13.868;2022-10-31T10:41:17;101744.16;;;22.20;49.70
68399;BME280;56258;52.196;13.868;2022-10-31T10:43:44;101741.75;;;22.33;49.31
68399;BME280;56258;52.196;13.868;2022-10-31T10:57:55;101727.88;;;22.36;49.35
68399;BME280;56258;52.196;13.868;2022-10-31T11:00:38;101726.97;;;22.83;47.91
68399;BME280;56258;52.196;13.868;2022-10-31T11:03:05;101722.84;;;22.56;48.36
68399;BME280;56258;52.196;13.868;2022-10-31T11:08:23;101725.88;;;22.22;49.61
68399;BME280;56258;52.196;13.868;2022-10-31T11:11:05;101721.84;;;22.18;49.27
68399;BME280;56258;52.196;13.868;2022-10-31T11:13:35;101718.13;;;22.10;49.86
68399;BME280;56258;52.196;13.868;2022-10-31T11:18:54;101716.28;;;22.03;49.98
68399;BME280;56258;52.196;13.868;2022-10-31T11:21:32;101719.16;;;22.09;50.12
68399;BME280;56258;52.196;13.868;2022-10-31T11:24:15;101717.97;;;22.04;49.93
68399;BME280;56258;52.196;13.868;2022-10-31T11:26:44;101714.00;;;22.31;49.32
68399;BME280;56258;52.196;13.868;2022-10-31T11:29:24;101721.38;;;22.45;49.03
68399;BME280;56258;52.196;13.868;2022-10-31T11:31:53;101714.34;;;22.28;49.17
68399;BME280;56258;52.196;13.868;2022-10-31T11:34:28;101710.69;;;22.12;49.83
68399;BME280;56258;52.196;13.868;2022-10-31T11:37:08;101704.25;;;21.97;49.97
68399;BME280;56258;52.196;13.868;2022-10-31T11:39:41;101708.34;;;22.01;49.97
68399;BME280;56258;52.196;13.868;2022-10-31T11:42:08;101704.41;;;22.04;49.96
68399;BME280;56258;52.196;13.868;2022-10-31T11:44:35;101701.22;;;22.08;50.24
68399;BME280;56258;52.196;13.868;2022-10-31T11:47:04;101699.03;;;22.12;49.31
68399;BME280;56258;52.196;13.868;2022-10-31T11:52:05;101704.91;;;22.16;49.61
68399;BME280;56258;52.196;13.868;2022-10-31T11:54:41;101707.75;;;22.30;49.01
68399;BME280;56258;52.196;13.868;2022-10-31T11:57:42;101702.03;;;22.56;48.61
68399;BME280;56258;52.196;13.868;2022-10-31T12:03:29;101692.47;;;22.99;47.57
68399;BME280;56258;52.196;13.868;2022-10-31T12:06:07;101695.34;;;23.44;46.20
68399;BME280;56258;52.196;13.868;2022-10-31T12:08:36;101706.00;;;23.83;45.31
68399;BME280;56258;52.196;13.868;2022-10-31T12:14:21;101692.53;;;24.19;44.47
68399;BME280;56258;52.196;13.868;2022-10-31T12:17:00;101683.25;;;23.84;45.22
68399;BME280;56258;52.196;13.868;2022-10-31T12:25:43;101680.19;;;23.87;45.50
68399;BME280;56258;52.196;13.868;2022-10-31T12:31:23;101692.34;;;23.76;45.98
68399;BME280;56258;52.196;13.868;2022-10-31T12:39:31;101678.59;;;23.40;46.73
68399;BME280;56258;52.196;13.868;2022-10-31T12:45:13;101671.00;;;22.90;48.11
68399;BME280;56258;52.196;13.868;2022-10-31T12:47:57;101672.69;;;22.91;47.82
68399;BME280;56258;52.196;13.868;2022-10-31T12:50:35;101670.31;;;22.96;48.23
68399;BME280;56258;52.196;13.868;2022-10-31T12:55:58;101659.88;;;22.85;48.37
68399;BME280;56258;52.196;13.868;2022-10-31T12:58:33;101653.16;;;22.73;48.52
68399;BME280;56258;52.196;13.868;2022-10-31T13:01:07;101652.06;;;22.59;49.09
68399;BME280;56258;52.196;13.868;2022-10-31T13:03:54;101656.06;;;22.71;48.90
68399;BME280;56258;52.196;13.868;2022-10-31T13:06:32;101654.78;;;22.82;48.40
68399;BME280;56258;52.196;13.868;2022-10-31T13:09:02;101649.41;;;23.05;47.48
68399;BME280;56258;52.196;13.868;2022-10-31T13:11:35;101648.44;;;22.97;47.78
68399;BME280;56258;52.196;13.868;2022-10-31T13:14:24;101646.84;;;23.03;47.80
68399;BME280;56258;52.196;13.868;2022-10-31T13:16:53;101643.53;;;23.16;47.61
68399;BME280;56258;52.196;13.868;2022-10-31T13:19:28;101648.59;;;23.19;47.62
68399;BME280;56258;52.196;13.868;2022-10-31T13:22:16;101649.25;;;23.21;47.40
68399;BME280;56258;52.196;13.868;2022-10-31T13:30:38;101644.50;;;23.00;48.17
68399;BME280;56258;52.196;13.868;2022-10-31T13:35:52;101629.56;;;22.81;48.44
68399;BME280;56258;52.196;13.868;2022-10-31T13:38:36;101636.56;;;22.67;48.99
68399;BME280;56258;52.196;13.868;2022-10-31T13:41:34;101635.94;;;22.57;49.35
68399;BME280;56258;52.196;13.868;2022-10-31T13:44:09;101636.38;;;22.46;49.16
68399;BME280;56258;52.196;13.868;2022-10-31T13:46:39;101636.03;;;22.49;49.44
68399;BME280;56258;52.196;13.868;2022-10-31T13:54:39;101628.44;;;22.67;49.21
68399;BME280;56258;52.196;13.868;2022-10-31T13:59:53;101629.22;;;22.53;49.25
68399;BME280;56258;52.196;13.868;2022-10-31T14:02:29;101616.56;;;22.68;48.88
68399;BME280;56258;52.196;13.868;2022-10-31T14:05:41;101625.44;;;22.62;49.36
68399;BME280;56258;52.196;13.868;2022-10-31T14:07:49;101622.59;;;22.56;49.24
68399;BME280;56258;52.196;13.868;2022-10-31T14:10:45;101617.06;;;22.49;49.39
68399;BME280;56258;52.196;13.868;2022-10-31T14:13:21;101618.31;;;22.38;49.95
68399;BME280;56258;52.196;13.868;2022-10-31T14:16:00;101623.25;;;22.35;49.49
68399;BME280;56258;52.196;13.868;2022-10-31T14:18:31;101617.88;;;22.27;50.10
68399;BME280;56258;52.196;13.868;2022-10-31T14:20:59;101616.47;;;22.31;50.06
68399;BME280;56258;52.196;13.868;2022-10-31T14:23:36;101602.28;;;22.29;49.99
68399;BME280;56258;52.196;13.868;2022-10-31T14:28:35;101605.56;;;22.16;50.15
68399;BME280;56258;52.196;13.868;2022-10-31T14:31:01;101601.28;;;22.22;49.88
68399;BME280;56258;52.196;13.868;2022-10-31T14:33:29;101609.47;;;22.13;50.46
68399;BME280;56258;52.196;13.868;2022-10-31T14:36:10;101605.06;;;22.12;50.06
68399;BME280;56258;52.196;13.868;2022-10-31T14:38:56;101605.59;;;22.08;50.00
68399;BME280;56258;52.196;13.868;2022-10-31T14:44:44;101602.38;;;22.04;50.47
68399;BME280;56258;52.196;13.868;2022-10-31T14:47:27;101597.16;;;21.95;50.79